sensor_id;sensor_type;location;lat;lon;timestamp;P1;durP1;ratioP1;P2;durP2;ratioP2
23722;SDS011;12042;52.136;5.584;2022-08-19T00:01:42;11.05;;;10.05;;
23722;SDS011;12042;52.136;5.584;2022-08-19T00:04:11;10.43;;;9.52;;
23722;SDS011;12042;52.136;5.584;2022-08-19T00:06:38;11.07;;;10.18;;
23722;SDS011;12042;52.136;5.584;2022-08-19T00:09:06;11.75;;;10.85;;
23722;SDS011;12042;52.136;5.584;2022-08-19T00:11:34;10.85;;;9.98;;
23722;SDS011;12042;52.136;5.584;2022-08-19T00:14:02;12.23;;;11.27;;
23722;SDS011;12042;52.136;5.584;2022-08-19T00:16:28;11.23;;;10.23;;
23722;SDS011;12042;52.136;5.584;2022-08-19T00:18:54;12.43;;;11.25;;
23722;SDS011;12042;52.136;5.584;2022-08-19T00:21:20;10.15;;;9.45;;
23722;SDS011;12042;52.136;5.584;2022-08-19T00:23:46;12.43;;;11.20;;
23722;SDS011;12042;52.136;5.584;2022-08-19T00:26:12;11.02;;;10.23;;
23722;SDS011;12042;52.136;5.584;2022-08-19T00:28:38;11.35;;;10.38;;
23722;SDS011;12042;52.136;5.584;2022-08-19T00:31:05;12.52;;;11.30;;
23722;SDS011;12042;52.136;5.584;2022-08-19T00:33:31;12.18;;;11.18;;
23722;SDS011;12042;52.136;5.584;2022-08-19T00:35:58;11.82;;;11.02;;
23722;SDS011;12042;52.136;5.584;2022-08-19T00:38:24;10.85;;;10.05;;
23722;SDS011;12042;52.136;5.584;2022-08-19T00:40:50;10.80;;;9.82;;
23722;SDS011;12042;52.136;5.584;2022-08-19T00:43:18;10.35;;;9.73;;
23722;SDS011;12042;52.136;5.584;2022-08-19T00:45:46;10.50;;;9.80;;
23722;SDS011;12042;52.136;5.584;2022-08-19T00:48:13;11.68;;;10.68;;
23722;SDS011;12042;52.136;5.584;2022-08-19T00:50:39;10.60;;;9.80;;
23722;SDS011;12042;52.136;5.584;2022-08-19T00:53:08;12.32;;;11.25;;
23722;SDS011;12042;52.136;5.584;2022-08-19T00:55:36;12.95;;;11.75;;
23722;SDS011;12042;52.136;5.584;2022-08-19T00:58:05;12.18;;;11.27;;
23722;SDS011;12042;52.136;5.584;2022-08-19T01:00:33;12.93;;;11.73;;
23722;SDS011;12042;52.136;5.584;2022-08-19T01:03:02;11.77;;;10.88;;
23722;SDS011;12042;52.136;5.584;2022-08-19T01:05:32;12.07;;;11.07;;
23722;SDS011;12042;52.136;5.584;2022-08-19T01:07:58;12.55;;;11.50;;
23722;SDS011;12042;52.136;5.584;2022-08-19T01:10:27;12.77;;;11.70;;
23722;SDS011;12042;52.136;5.584;2022-08-19T01:12:57;13.02;;;12.00;;
23722;SDS011;12042;52.136;5.584;2022-08-19T01:15:27;12.63;;;11.52;;
23722;SDS011;12042;52.136;5.584;2022-08-19T01:17:57;13.50;;;12.40;;
23722;SDS011;12042;52.136;5.584;2022-08-19T01:20:28;13.35;;;11.93;;
23722;SDS011;12042;52.136;5.584;2022-08-19T01:22:57;12.60;;;11.40;;
23722;SDS011;12042;52.136;5.584;2022-08-19T01:25:31;13.00;;;12.00;;
23722;SDS011;12042;52.136;5.584;2022-08-19T01:28:00;12.50;;;11.60;;
23722;SDS011;12042;52.136;5.584;2022-08-19T01:30:28;13.18;;;12.07;;
23722;SDS011;12042;52.136;5.584;2022-08-19T01:32:56;11.70;;;10.80;;
23722;SDS011;12042;52.136;5.584;2022-08-19T01:35:23;13.43;;;12.02;;
23722;SDS011;12042;52.136;5.584;2022-08-19T01:37:54;14.25;;;13.05;;
23722;SDS011;12042;52.136;5.584;2022-08-19T01:40:22;12.18;;;11.27;;
23722;SDS011;12042;52.136;5.584;2022-08-19T01:42:51;12.38;;;11.20;;
23722;SDS011;12042;52.136;5.584;2022-08-19T01:45:18;14.45;;;13.10;;
23722;SDS011;12042;52.136;5.584;2022-08-19T01:47:45;12.80;;;11.80;;
23722;SDS011;12042;52.136;5.584;2022-08-19T01:50:11;13.10;;;11.90;;
23722;SDS011;12042;52.136;5.584;2022-08-19T01:52:38;13.48;;;12.27;;
23722;SDS011;12042;52.136;5.584;2022-08-19T01:55:06;12.38;;;11.48;;
23722;SDS011;12042;52.136;5.584;2022-08-19T01:57:35;14.20;;;13.00;;
23722;SDS011;12042;52.136;5.584;2022-08-19T02:00:02;16.95;;;15.23;;
23722;SDS011;12042;52.136;5.584;2022-08-19T02:02:31;13.90;;;12.63;;
23722;SDS011;12042;52.136;5.584;2022-08-19T02:04:56;14.70;;;13.23;;
23722;SDS011;12042;52.136;5.584;2022-08-19T02:07:22;13.35;;;12.35;;
23722;SDS011;12042;52.136;5.584;2022-08-19T02:09:48;15.05;;;13.85;;
23722;SDS011;12042;52.136;5.584;2022-08-19T02:12:14;13.38;;;12.20;;
23722;SDS011;12042;52.136;5.584;2022-08-19T02:14:41;13.43;;;12.18;;
23722;SDS011;12042;52.136;5.584;2022-08-19T02:17:07;13.68;;;12.57;;
23722;SDS011;12042;52.136;5.584;2022-08-19T02:19:33;14.07;;;12.90;;
23722;SDS011;12042;52.136;5.584;2022-08-19T02:21:59;14.57;;;13.18;;
23722;SDS011;12042;52.136;5.584;2022-08-19T02:24:26;15.18;;;13.50;;
23722;SDS011;12042;52.136;5.584;2022-08-19T02:26:51;15.90;;;14.50;;
23722;SDS011;12042;52.136;5.584;2022-08-19T02:29:17;15.02;;;13.65;;
23722;SDS011;12042;52.136;5.584;2022-08-19T02:31:43;15.45;;;14.25;;
23722;SDS011;12042;52.136;5.584;2022-08-19T02:34:08;14.50;;;13.40;;
23722;SDS011;12042;52.136;5.584;2022-08-19T02:36:34;15.25;;;13.93;;
23722;SDS011;12042;52.136;5.584;2022-08-19T02:39:00;14.77;;;13.48;;
23722;SDS011;12042;52.136;5.584;2022-08-19T02:41:27;15.68;;;14.27;;
23722;SDS011;12042;52.136;5.584;2022-08-19T02:43:56;15.57;;;14.15;;
23722;SDS011;12042;52.136;5.584;2022-08-19T02:46:30;15.30;;;14.00;;
23722;SDS011;12042;52.136;5.584;2022-08-19T02:48:58;15.45;;;14.15;;
23722;SDS011;12042;52.136;5.584;2022-08-19T02:51:28;15.25;;;13.95;;
23722;SDS011;12042;52.136;5.584;2022-08-19T02:53:56;16.08;;;14.68;;
23722;SDS011;12042;52.136;5.584;2022-08-19T02:56:22;15.40;;;14.00;;
23722;SDS011;12042;52.136;5.584;2022-08-19T02:58:50;16.63;;;14.30;;
23722;SDS011;12042;52.136;5.584;2022-08-19T03:01:26;15.20;;;13.93;;
23722;SDS011;12042;52.136;5.584;2022-08-19T03:03:54;14.25;;;13.00;;
23722;SDS011;12042;52.136;5.584;2022-08-19T03:06:21;15.65;;;14.35;;
23722;SDS011;12042;52.136;5.584;2022-08-19T03:08:47;15.63;;;14.32;;
23722;SDS011;12042;52.136;5.584;2022-08-19T03:11:19;14.18;;;13.07;;
23722;SDS011;12042;52.136;5.584;2022-08-19T03:13:48;14.80;;;13.55;;
23722;SDS011;12042;52.136;5.584;2022-08-19T03:16:16;15.27;;;13.93;;
23722;SDS011;12042;52.136;5.584;2022-08-19T03:18:43;15.27;;;13.88;;
23722;SDS011;12042;52.136;5.584;2022-08-19T03:21:14;14.07;;;12.82;;
23722;SDS011;12042;52.136;5.584;2022-08-19T03:23:45;13.70;;;12.70;;
23722;SDS011;12042;52.136;5.584;2022-08-19T03:26:11;14.60;;;13.35;;
23722;SDS011;12042;52.136;5.584;2022-08-19T03:28:39;15.88;;;14.38;;
23722;SDS011;12042;52.136;5.584;2022-08-19T03:31:10;14.82;;;13.48;;
23722;SDS011;12042;52.136;5.584;2022-08-19T03:33:37;17.90;;;15.43;;
23722;SDS011;12042;52.136;5.584;2022-08-19T03:36:08;15.05;;;13.65;;
23722;SDS011;12042;52.136;5.584;2022-08-19T03:38:42;18.52;;;16.58;;
23722;SDS011;12042;52.136;5.584;2022-08-19T03:41:12;17.92;;;14.95;;
23722;SDS011;12042;52.136;5.584;2022-08-19T03:43:41;17.85;;;16.00;;
23722;SDS011;12042;52.136;5.584;2022-08-19T03:46:08;15.38;;;14.00;;
23722;SDS011;12042;52.136;5.584;2022-08-19T03:48:39;15.00;;;13.70;;
23722;SDS011;12042;52.136;5.584;2022-08-19T03:51:07;15.63;;;14.05;;
23722;SDS011;12042;52.136;5.584;2022-08-19T03:53:40;21.52;;;15.07;;
23722;SDS011;12042;52.136;5.584;2022-08-19T03:56:06;17.67;;;15.05;;
23722;SDS011;12042;52.136;5.584;2022-08-19T03:58:34;16.88;;;15.38;;
23722;SDS011;12042;52.136;5.584;2022-08-19T04:01:00;15.73;;;14.32;;
23722;SDS011;12042;52.136;5.584;2022-08-19T04:03:26;13.98;;;12.88;;
23722;SDS011;12042;52.136;5.584;2022-08-19T04:05:51;16.33;;;14.30;;
23722;SDS011;12042;52.136;5.584;2022-08-19T04:08:18;13.50;;;12.43;;
23722;SDS011;12042;52.136;5.584;2022-08-19T04:10:45;14.45;;;13.23;;
23722;SDS011;12042;52.136;5.584;2022-08-19T04:13:13;14.48;;;13.27;;
23722;SDS011;12042;52.136;5.584;2022-08-19T04:15:43;15.45;;;14.05;;
23722;SDS011;12042;52.136;5.584;2022-08-19T04:18:11;16.50;;;14.98;;
23722;SDS011;12042;52.136;5.584;2022-08-19T04:20:44;14.32;;;13.13;;
23722;SDS011;12042;52.136;5.584;2022-08-19T04:23:11;13.45;;;12.25;;
23722;SDS011;12042;52.136;5.584;2022-08-19T04:25:41;15.27;;;13.93;;
23722;SDS011;12042;52.136;5.584;2022-08-19T04:28:09;14.98;;;13.60;;
23722;SDS011;12042;52.136;5.584;2022-08-19T04:30:37;16.10;;;14.48;;
23722;SDS011;12042;52.136;5.584;2022-08-19T04:33:14;16.25;;;14.23;;
23722;SDS011;12042;52.136;5.584;2022-08-19T04:35:43;15.90;;;14.52;;
23722;SDS011;12042;52.136;5.584;2022-08-19T04:38:10;15.95;;;14.20;;
23722;SDS011;12042;52.136;5.584;2022-08-19T04:40:46;15.60;;;14.25;;
23722;SDS011;12042;52.136;5.584;2022-08-19T04:43:32;16.52;;;14.93;;
23722;SDS011;12042;52.136;5.584;2022-08-19T04:46:11;15.75;;;14.25;;
23722;SDS011;12042;52.136;5.584;2022-08-19T04:48:38;16.70;;;13.43;;
23722;SDS011;12042;52.136;5.584;2022-08-19T04:51:08;14.63;;;13.20;;
23722;SDS011;12042;52.136;5.584;2022-08-19T04:53:37;14.55;;;13.10;;
23722;SDS011;12042;52.136;5.584;2022-08-19T04:56:09;15.70;;;14.10;;
23722;SDS011;12042;52.136;5.584;2022-08-19T04:58:40;17.38;;;14.43;;
23722;SDS011;12042;52.136;5.584;2022-08-19T05:01:12;14.68;;;13.27;;
23722;SDS011;12042;52.136;5.584;2022-08-19T05:03:39;15.32;;;13.77;;
23722;SDS011;12042;52.136;5.584;2022-08-19T05:06:08;16.35;;;14.25;;
23722;SDS011;12042;52.136;5.584;2022-08-19T05:08:36;16.92;;;15.40;;
23722;SDS011;12042;52.136;5.584;2022-08-19T05:11:08;16.42;;;14.73;;
23722;SDS011;12042;52.136;5.584;2022-08-19T05:13:38;20.42;;;15.55;;
23722;SDS011;12042;52.136;5.584;2022-08-19T05:16:04;19.83;;;15.10;;
23722;SDS011;12042;52.136;5.584;2022-08-19T05:18:30;18.63;;;16.25;;
23722;SDS011;12042;52.136;5.584;2022-08-19T05:21:15;23.63;;;15.95;;
23722;SDS011;12042;52.136;5.584;2022-08-19T05:24:02;18.95;;;16.95;;
23722;SDS011;12042;52.136;5.584;2022-08-19T05:26:28;21.17;;;18.30;;
23722;SDS011;12042;52.136;5.584;2022-08-19T05:28:54;20.30;;;16.70;;
23722;SDS011;12042;52.136;5.584;2022-08-19T05:31:20;17.02;;;15.43;;
23722;SDS011;12042;52.136;5.584;2022-08-19T05:33:46;18.20;;;16.38;;
23722;SDS011;12042;52.136;5.584;2022-08-19T05:36:12;19.02;;;16.73;;
23722;SDS011;12042;52.136;5.584;2022-08-19T05:38:38;18.55;;;16.65;;
23722;SDS011;12042;52.136;5.584;2022-08-19T05:41:10;19.10;;;17.15;;
23722;SDS011;12042;52.136;5.584;2022-08-19T05:43:38;18.67;;;16.55;;
23722;SDS011;12042;52.136;5.584;2022-08-19T05:46:04;17.55;;;15.68;;
23722;SDS011;12042;52.136;5.584;2022-08-19T05:48:32;17.52;;;15.70;;
23722;SDS011;12042;52.136;5.584;2022-08-19T05:51:03;21.75;;;17.20;;
23722;SDS011;12042;52.136;5.584;2022-08-19T05:53:31;26.25;;;20.27;;
23722;SDS011;12042;52.136;5.584;2022-08-19T05:56:02;27.50;;;20.67;;
23722;SDS011;12042;52.136;5.584;2022-08-19T05:58:29;32.10;;;23.15;;
23722;SDS011;12042;52.136;5.584;2022-08-19T06:00:56;32.67;;;23.13;;
23722;SDS011;12042;52.136;5.584;2022-08-19T06:03:21;31.98;;;23.60;;
23722;SDS011;12042;52.136;5.584;2022-08-19T06:05:47;29.65;;;22.85;;
23722;SDS011;12042;52.136;5.584;2022-08-19T06:08:13;30.50;;;23.63;;
23722;SDS011;12042;52.136;5.584;2022-08-19T06:10:38;36.25;;;26.05;;
23722;SDS011;12042;52.136;5.584;2022-08-19T06:13:04;38.20;;;26.80;;
23722;SDS011;12042;52.136;5.584;2022-08-19T06:15:30;36.25;;;26.63;;
23722;SDS011;12042;52.136;5.584;2022-08-19T06:17:56;38.35;;;27.63;;
23722;SDS011;12042;52.136;5.584;2022-08-19T06:20:22;40.17;;;28.27;;
23722;SDS011;12042;52.136;5.584;2022-08-19T06:22:48;48.13;;;31.23;;
23722;SDS011;12042;52.136;5.584;2022-08-19T06:25:15;43.25;;;30.50;;
23722;SDS011;12042;52.136;5.584;2022-08-19T06:27:41;46.58;;;29.45;;
23722;SDS011;12042;52.136;5.584;2022-08-19T06:30:08;45.35;;;30.33;;
23722;SDS011;12042;52.136;5.584;2022-08-19T06:32:35;68.80;;;35.42;;
23722;SDS011;12042;52.136;5.584;2022-08-19T06:35:00;61.53;;;35.58;;
23722;SDS011;12042;52.136;5.584;2022-08-19T06:37:26;73.80;;;37.63;;
23722;SDS011;12042;52.136;5.584;2022-08-19T06:39:51;73.47;;;38.10;;
23722;SDS011;12042;52.136;5.584;2022-08-19T06:42:17;73.55;;;38.38;;
23722;SDS011;12042;52.136;5.584;2022-08-19T06:44:44;75.93;;;37.30;;
23722;SDS011;12042;52.136;5.584;2022-08-19T06:47:15;78.72;;;40.53;;
23722;SDS011;12042;52.136;5.584;2022-08-19T06:49:43;84.13;;;43.13;;
23722;SDS011;12042;52.136;5.584;2022-08-19T06:52:09;79.85;;;42.60;;
23722;SDS011;12042;52.136;5.584;2022-08-19T06:54:37;82.85;;;42.40;;
23722;SDS011;12042;52.136;5.584;2022-08-19T06:57:04;82.25;;;44.20;;
23722;SDS011;12042;52.136;5.584;2022-08-19T06:59:32;89.90;;;45.60;;
23722;SDS011;12042;52.136;5.584;2022-08-19T07:01:59;84.47;;;44.55;;
23722;SDS011;12042;52.136;5.584;2022-08-19T07:04:28;82.75;;;44.65;;
23722;SDS011;12042;52.136;5.584;2022-08-19T07:07:11;90.30;;;45.78;;
23722;SDS011;12042;52.136;5.584;2022-08-19T07:09:39;80.35;;;46.33;;
23722;SDS011;12042;52.136;5.584;2022-08-19T07:12:08;83.90;;;46.05;;
23722;SDS011;12042;52.136;5.584;2022-08-19T07:14:35;84.80;;;46.80;;
23722;SDS011;12042;52.136;5.584;2022-08-19T07:17:04;87.70;;;48.65;;
23722;SDS011;12042;52.136;5.584;2022-08-19T07:19:32;85.75;;;49.00;;
23722;SDS011;12042;52.136;5.584;2022-08-19T07:21:58;86.88;;;49.58;;
23722;SDS011;12042;52.136;5.584;2022-08-19T07:24:27;88.85;;;49.55;;
23722;SDS011;12042;52.136;5.584;2022-08-19T07:26:53;96.90;;;50.25;;
23722;SDS011;12042;52.136;5.584;2022-08-19T07:29:21;91.30;;;49.80;;
23722;SDS011;12042;52.136;5.584;2022-08-19T07:31:49;96.28;;;49.17;;
23722;SDS011;12042;52.136;5.584;2022-08-19T07:34:15;94.50;;;50.83;;
23722;SDS011;12042;52.136;5.584;2022-08-19T07:36:42;93.85;;;49.08;;
23722;SDS011;12042;52.136;5.584;2022-08-19T07:39:10;89.78;;;48.72;;
23722;SDS011;12042;52.136;5.584;2022-08-19T07:41:38;97.28;;;49.65;;
23722;SDS011;12042;52.136;5.584;2022-08-19T07:44:05;91.88;;;49.10;;
23722;SDS011;12042;52.136;5.584;2022-08-19T07:46:33;86.68;;;47.78;;
23722;SDS011;12042;52.136;5.584;2022-08-19T07:49:00;89.78;;;48.85;;
23722;SDS011;12042;52.136;5.584;2022-08-19T07:51:27;92.47;;;48.42;;
23722;SDS011;12042;52.136;5.584;2022-08-19T07:53:53;89.75;;;46.95;;
23722;SDS011;12042;52.136;5.584;2022-08-19T07:56:19;84.50;;;45.83;;
23722;SDS011;12042;52.136;5.584;2022-08-19T07:58:47;82.85;;;46.80;;
23722;SDS011;12042;52.136;5.584;2022-08-19T08:01:19;86.50;;;46.03;;
23722;SDS011;12042;52.136;5.584;2022-08-19T08:03:49;80.82;;;46.35;;
23722;SDS011;12042;52.136;5.584;2022-08-19T08:06:34;75.97;;;45.63;;
23722;SDS011;12042;52.136;5.584;2022-08-19T08:09:21;76.55;;;44.55;;
23722;SDS011;12042;52.136;5.584;2022-08-19T08:14:22;72.80;;;43.00;;
23722;SDS011;12042;52.136;5.584;2022-08-19T08:16:50;70.55;;;43.15;;
23722;SDS011;12042;52.136;5.584;2022-08-19T08:19:18;72.28;;;43.80;;
23722;SDS011;12042;52.136;5.584;2022-08-19T08:21:46;67.70;;;40.60;;
23722;SDS011;12042;52.136;5.584;2022-08-19T08:24:12;62.78;;;37.47;;
23722;SDS011;12042;52.136;5.584;2022-08-19T08:26:38;60.72;;;38.00;;
23722;SDS011;12042;52.136;5.584;2022-08-19T08:29:04;60.33;;;38.03;;
23722;SDS011;12042;52.136;5.584;2022-08-19T08:31:32;60.63;;;37.70;;
23722;SDS011;12042;52.136;5.584;2022-08-19T08:33:58;56.05;;;37.35;;
23722;SDS011;12042;52.136;5.584;2022-08-19T08:36:24;58.70;;;37.17;;
23722;SDS011;12042;52.136;5.584;2022-08-19T08:38:50;58.20;;;36.30;;
23722;SDS011;12042;52.136;5.584;2022-08-19T08:44:16;50.33;;;34.15;;
23722;SDS011;12042;52.136;5.584;2022-08-19T08:46:48;47.50;;;34.05;;
23722;SDS011;12042;52.136;5.584;2022-08-19T08:49:20;52.33;;;33.63;;
23722;SDS011;12042;52.136;5.584;2022-08-19T08:52:06;45.70;;;32.33;;
23722;SDS011;12042;52.136;5.584;2022-08-19T08:54:48;42.22;;;30.00;;
23722;SDS011;12042;52.136;5.584;2022-08-19T09:00:05;46.33;;;31.63;;
23722;SDS011;12042;52.136;5.584;2022-08-19T09:02:32;41.67;;;29.58;;
23722;SDS011;12042;52.136;5.584;2022-08-19T09:04:59;40.90;;;31.05;;
23722;SDS011;12042;52.136;5.584;2022-08-19T09:07:33;41.95;;;30.30;;
23722;SDS011;12042;52.136;5.584;2022-08-19T09:10:37;36.35;;;25.92;;
23722;SDS011;12042;52.136;5.584;2022-08-19T09:13:11;34.38;;;26.00;;
23722;SDS011;12042;52.136;5.584;2022-08-19T09:15:55;33.05;;;24.88;;
23722;SDS011;12042;52.136;5.584;2022-08-19T09:18:26;34.38;;;24.45;;
23722;SDS011;12042;52.136;5.584;2022-08-19T09:21:09;29.30;;;22.48;;
23722;SDS011;12042;52.136;5.584;2022-08-19T09:23:35;35.85;;;24.50;;
23722;SDS011;12042;52.136;5.584;2022-08-19T09:26:04;33.90;;;24.38;;
23722;SDS011;12042;52.136;5.584;2022-08-19T09:28:38;33.65;;;23.13;;
23722;SDS011;12042;52.136;5.584;2022-08-19T09:31:08;30.45;;;23.95;;
23722;SDS011;12042;52.136;5.584;2022-08-19T09:33:42;30.67;;;23.15;;
23722;SDS011;12042;52.136;5.584;2022-08-19T09:36:09;34.65;;;25.40;;
23722;SDS011;12042;52.136;5.584;2022-08-19T09:38:38;32.13;;;25.08;;
23722;SDS011;12042;52.136;5.584;2022-08-19T09:41:08;35.60;;;27.23;;
23722;SDS011;12042;52.136;5.584;2022-08-19T09:43:37;32.92;;;24.98;;
23722;SDS011;12042;52.136;5.584;2022-08-19T09:46:03;29.98;;;24.40;;
23722;SDS011;12042;52.136;5.584;2022-08-19T09:48:34;33.67;;;23.13;;
23722;SDS011;12042;52.136;5.584;2022-08-19T09:53:34;28.52;;;22.00;;
23722;SDS011;12042;52.136;5.584;2022-08-19T09:56:00;29.38;;;21.27;;
23722;SDS011;12042;52.136;5.584;2022-08-19T09:58:27;31.27;;;21.42;;
23722;SDS011;12042;52.136;5.584;2022-08-19T10:00:54;24.13;;;20.50;;
23722;SDS011;12042;52.136;5.584;2022-08-19T10:03:21;25.55;;;19.70;;
23722;SDS011;12042;52.136;5.584;2022-08-19T10:05:48;24.48;;;18.67;;
23722;SDS011;12042;52.136;5.584;2022-08-19T10:08:18;26.95;;;19.95;;
23722;SDS011;12042;52.136;5.584;2022-08-19T10:10:48;26.25;;;19.90;;
23722;SDS011;12042;52.136;5.584;2022-08-19T10:13:17;23.52;;;18.38;;
23722;SDS011;12042;52.136;5.584;2022-08-19T10:15:48;23.33;;;18.52;;
23722;SDS011;12042;52.136;5.584;2022-08-19T10:18:18;22.45;;;17.50;;
23722;SDS011;12042;52.136;5.584;2022-08-19T10:20:46;23.38;;;17.42;;
23722;SDS011;12042;52.136;5.584;2022-08-19T10:23:13;23.13;;;16.98;;
23722;SDS011;12042;52.136;5.584;2022-08-19T10:25:40;21.67;;;16.90;;
23722;SDS011;12042;52.136;5.584;2022-08-19T10:28:06;23.73;;;17.13;;
23722;SDS011;12042;52.136;5.584;2022-08-19T10:30:33;20.15;;;16.55;;
23722;SDS011;12042;52.136;5.584;2022-08-19T10:33:00;24.25;;;17.77;;
23722;SDS011;12042;52.136;5.584;2022-08-19T10:35:26;21.08;;;17.42;;
23722;SDS011;12042;52.136;5.584;2022-08-19T10:37:54;21.08;;;17.02;;
23722;SDS011;12042;52.136;5.584;2022-08-19T10:40:24;20.95;;;16.02;;
23722;SDS011;12042;52.136;5.584;2022-08-19T10:42:51;25.77;;;17.08;;
23722;SDS011;12042;52.136;5.584;2022-08-19T10:45:17;22.60;;;16.85;;
23722;SDS011;12042;52.136;5.584;2022-08-19T10:47:43;20.52;;;17.40;;
23722;SDS011;12042;52.136;5.584;2022-08-19T10:50:09;23.08;;;17.33;;
23722;SDS011;12042;52.136;5.584;2022-08-19T10:52:53;20.63;;;17.65;;
23722;SDS011;12042;52.136;5.584;2022-08-19T10:55:20;19.75;;;15.80;;
23722;SDS011;12042;52.136;5.584;2022-08-19T10:58:16;19.23;;;16.73;;
23722;SDS011;12042;52.136;5.584;2022-08-19T11:00:56;18.58;;;15.30;;
23722;SDS011;12042;52.136;5.584;2022-08-19T11:03:23;17.35;;;12.98;;
23722;SDS011;12042;52.136;5.584;2022-08-19T11:06:00;18.17;;;16.00;;
23722;SDS011;12042;52.136;5.584;2022-08-19T11:08:31;20.50;;;16.80;;
23722;SDS011;12042;52.136;5.584;2022-08-19T11:10:58;22.33;;;19.13;;
23722;SDS011;12042;52.136;5.584;2022-08-19T11:13:26;21.52;;;18.27;;
23722;SDS011;12042;52.136;5.584;2022-08-19T11:15:57;20.13;;;17.85;;
23722;SDS011;12042;52.136;5.584;2022-08-19T11:18:24;22.98;;;17.60;;
23722;SDS011;12042;52.136;5.584;2022-08-19T11:20:49;20.55;;;17.40;;
23722;SDS011;12042;52.136;5.584;2022-08-19T11:23:15;19.42;;;17.38;;
23722;SDS011;12042;52.136;5.584;2022-08-19T11:25:40;25.02;;;20.10;;
23722;SDS011;12042;52.136;5.584;2022-08-19T11:28:06;24.23;;;19.40;;
23722;SDS011;12042;52.136;5.584;2022-08-19T11:30:32;26.55;;;18.33;;
23722;SDS011;12042;52.136;5.584;2022-08-19T11:32:59;28.38;;;22.25;;
23722;SDS011;12042;52.136;5.584;2022-08-19T11:35:26;24.55;;;21.73;;
23722;SDS011;12042;52.136;5.584;2022-08-19T11:37:51;26.52;;;21.75;;
23722;SDS011;12042;52.136;5.584;2022-08-19T11:40:17;31.15;;;23.15;;
23722;SDS011;12042;52.136;5.584;2022-08-19T11:42:43;27.67;;;22.58;;
23722;SDS011;12042;52.136;5.584;2022-08-19T11:45:21;28.38;;;24.00;;
23722;SDS011;12042;52.136;5.584;2022-08-19T11:47:48;31.05;;;23.70;;
23722;SDS011;12042;52.136;5.584;2022-08-19T11:50:14;28.42;;;22.98;;
23722;SDS011;12042;52.136;5.584;2022-08-19T11:52:41;34.65;;;25.27;;
23722;SDS011;12042;52.136;5.584;2022-08-19T11:55:07;29.05;;;22.00;;
23722;SDS011;12042;52.136;5.584;2022-08-19T11:57:33;30.23;;;25.88;;
23722;SDS011;12042;52.136;5.584;2022-08-19T11:59:59;32.75;;;26.13;;
23722;SDS011;12042;52.136;5.584;2022-08-19T12:02:24;33.85;;;24.65;;
23722;SDS011;12042;52.136;5.584;2022-08-19T12:04:50;32.00;;;25.95;;
23722;SDS011;12042;52.136;5.584;2022-08-19T12:07:16;34.17;;;27.67;;
23722;SDS011;12042;52.136;5.584;2022-08-19T12:09:42;32.47;;;25.77;;
23722;SDS011;12042;52.136;5.584;2022-08-19T12:12:08;31.48;;;24.83;;
23722;SDS011;12042;52.136;5.584;2022-08-19T12:14:34;37.33;;;28.63;;
23722;SDS011;12042;52.136;5.584;2022-08-19T12:17:00;30.95;;;25.73;;
23722;SDS011;12042;52.136;5.584;2022-08-19T12:19:27;28.92;;;24.83;;
23722;SDS011;12042;52.136;5.584;2022-08-19T12:21:54;32.47;;;25.65;;
23722;SDS011;12042;52.136;5.584;2022-08-19T12:24:25;30.13;;;25.02;;
23722;SDS011;12042;52.136;5.584;2022-08-19T12:26:51;32.55;;;26.70;;
23722;SDS011;12042;52.136;5.584;2022-08-19T12:29:16;33.42;;;26.40;;
23722;SDS011;12042;52.136;5.584;2022-08-19T12:31:42;34.47;;;26.65;;
23722;SDS011;12042;52.136;5.584;2022-08-19T12:34:08;33.97;;;28.25;;
23722;SDS011;12042;52.136;5.584;2022-08-19T12:36:34;33.88;;;27.65;;
23722;SDS011;12042;52.136;5.584;2022-08-19T12:39:00;34.47;;;27.17;;
23722;SDS011;12042;52.136;5.584;2022-08-19T12:41:25;32.40;;;26.52;;
23722;SDS011;12042;52.136;5.584;2022-08-19T12:43:51;29.00;;;24.83;;
23722;SDS011;12042;52.136;5.584;2022-08-19T12:46:17;29.27;;;25.55;;
23722;SDS011;12042;52.136;5.584;2022-08-19T12:48:44;34.17;;;27.55;;
23722;SDS011;12042;52.136;5.584;2022-08-19T12:51:11;31.30;;;25.25;;
23722;SDS011;12042;52.136;5.584;2022-08-19T12:53:39;35.75;;;26.73;;
23722;SDS011;12042;52.136;5.584;2022-08-19T12:56:06;31.80;;;26.60;;
23722;SDS011;12042;52.136;5.584;2022-08-19T12:58:33;33.25;;;26.73;;
23722;SDS011;12042;52.136;5.584;2022-08-19T13:00:59;37.40;;;28.67;;
23722;SDS011;12042;52.136;5.584;2022-08-19T13:03:31;41.97;;;30.88;;
23722;SDS011;12042;52.136;5.584;2022-08-19T13:05:56;39.90;;;30.73;;
23722;SDS011;12042;52.136;5.584;2022-08-19T13:08:22;38.72;;;31.40;;
23722;SDS011;12042;52.136;5.584;2022-08-19T13:10:48;44.10;;;34.15;;
23722;SDS011;12042;52.136;5.584;2022-08-19T13:13:13;47.97;;;34.13;;
23722;SDS011;12042;52.136;5.584;2022-08-19T13:15:39;46.83;;;35.33;;
23722;SDS011;12042;52.136;5.584;2022-08-19T13:18:08;42.20;;;32.92;;
23722;SDS011;12042;52.136;5.584;2022-08-19T13:20:35;40.28;;;32.00;;
23722;SDS011;12042;52.136;5.584;2022-08-19T13:23:02;35.22;;;30.25;;
23722;SDS011;12042;52.136;5.584;2022-08-19T13:25:28;32.17;;;28.23;;
23722;SDS011;12042;52.136;5.584;2022-08-19T13:27:54;31.63;;;27.67;;
23722;SDS011;12042;52.136;5.584;2022-08-19T13:30:20;32.53;;;27.58;;
23722;SDS011;12042;52.136;5.584;2022-08-19T13:33:05;32.40;;;27.35;;
23722;SDS011;12042;52.136;5.584;2022-08-19T13:35:46;32.92;;;27.02;;
23722;SDS011;12042;52.136;5.584;2022-08-19T13:38:22;32.20;;;26.95;;
23722;SDS011;12042;52.136;5.584;2022-08-19T13:40:49;32.05;;;25.65;;
23722;SDS011;12042;52.136;5.584;2022-08-19T13:43:16;29.75;;;25.50;;
23722;SDS011;12042;52.136;5.584;2022-08-19T13:45:43;31.63;;;25.70;;
23722;SDS011;12042;52.136;5.584;2022-08-19T13:48:08;30.63;;;25.20;;
23722;SDS011;12042;52.136;5.584;2022-08-19T13:50:38;29.30;;;23.50;;
23722;SDS011;12042;52.136;5.584;2022-08-19T13:53:06;26.52;;;23.80;;
23722;SDS011;12042;52.136;5.584;2022-08-19T13:55:33;27.33;;;24.45;;
23722;SDS011;12042;52.136;5.584;2022-08-19T13:58:01;27.60;;;24.15;;
23722;SDS011;12042;52.136;5.584;2022-08-19T14:00:31;28.40;;;25.40;;
23722;SDS011;12042;52.136;5.584;2022-08-19T14:03:02;30.42;;;25.00;;
23722;SDS011;12042;52.136;5.584;2022-08-19T14:05:29;34.10;;;27.98;;
23722;SDS011;12042;52.136;5.584;2022-08-19T14:07:55;30.75;;;27.45;;
23722;SDS011;12042;52.136;5.584;2022-08-19T14:10:22;35.45;;;30.23;;
23722;SDS011;12042;52.136;5.584;2022-08-19T14:12:48;34.60;;;30.88;;
23722;SDS011;12042;52.136;5.584;2022-08-19T14:15:14;38.42;;;31.95;;
23722;SDS011;12042;52.136;5.584;2022-08-19T14:17:41;38.00;;;32.85;;
23722;SDS011;12042;52.136;5.584;2022-08-19T14:20:09;40.83;;;33.33;;
23722;SDS011;12042;52.136;5.584;2022-08-19T14:22:36;42.72;;;31.98;;
23722;SDS011;12042;52.136;5.584;2022-08-19T14:25:04;39.30;;;32.42;;
23722;SDS011;12042;52.136;5.584;2022-08-19T14:27:32;39.75;;;33.30;;
23722;SDS011;12042;52.136;5.584;2022-08-19T14:29:59;42.17;;;32.95;;
23722;SDS011;12042;52.136;5.584;2022-08-19T14:32:24;36.80;;;31.45;;
23722;SDS011;12042;52.136;5.584;2022-08-19T14:34:52;33.10;;;27.83;;
23722;SDS011;12042;52.136;5.584;2022-08-19T14:37:18;27.58;;;24.35;;
23722;SDS011;12042;52.136;5.584;2022-08-19T14:39:44;22.52;;;20.20;;